createdAt,value
2023-01-09T00:00:17.337Z,9.00
2023-01-09T00:04:29.996Z,9.20
2023-01-09T00:08:42.390Z,8.50
2023-01-09T00:12:54.773Z,8.10
2023-01-09T00:17:08.008Z,9.13
2023-01-09T00:21:21.387Z,8.43
2023-01-09T00:25:33.933Z,7.80
2023-01-09T00:29:46.951Z,8.55
2023-01-09T00:34:03.187Z,7.80
2023-01-09T00:38:15.496Z,8.48
2023-01-09T00:42:32.271Z,8.00
2023-01-09T00:46:49.359Z,7.75
2023-01-09T00:51:01.773Z,7.47
2023-01-09T00:55:15.689Z,7.60
2023-01-09T00:59:28.818Z,6.45
2023-01-09T01:03:41.483Z,6.15
2023-01-09T01:07:53.872Z,6.32
2023-01-09T01:12:07.513Z,6.25
2023-01-09T01:16:20.429Z,5.75
2023-01-09T01:20:33.004Z,6.45
2023-01-09T01:24:45.364Z,6.00
2023-01-09T01:28:59.890Z,5.95
2023-01-09T01:33:12.214Z,5.95
2023-01-09T01:37:24.933Z,6.75
2023-01-09T01:41:37.950Z,6.90
2023-01-09T01:45:50.306Z,6.88
2023-01-09T01:50:08.807Z,6.65
2023-01-09T01:54:26.558Z,6.53
2023-01-09T01:59:05.626Z,6.57
2023-01-09T02:03:19.715Z,6.50
2023-01-09T02:07:32.042Z,6.72
2023-01-09T02:11:52.704Z,7.18
2023-01-09T02:16:23.056Z,6.60
2023-01-09T02:20:49.055Z,5.80
2023-01-09T02:25:29.172Z,6.18
2023-01-09T02:29:54.811Z,6.53
2023-01-09T02:34:20.268Z,6.55
2023-01-09T02:39:00.530Z,6.30
2023-01-09T02:43:13.767Z,6.32
2023-01-09T02:47:26.079Z,6.53
2023-01-09T02:51:53.075Z,6.10
2023-01-09T02:56:12.551Z,6.43
2023-01-09T03:00:36.667Z,6.55
2023-01-09T03:05:07.156Z,5.95
2023-01-09T03:13:50.258Z,6.47
2023-01-09T03:18:06.086Z,5.60
2023-01-09T03:22:20.067Z,5.72
2023-01-09T03:26:32.702Z,5.47
2023-01-09T03:30:45.397Z,5.80
2023-01-09T03:34:57.720Z,5.45
2023-01-09T03:39:10.070Z,5.60
2023-01-09T03:43:22.486Z,6.13
2023-01-09T03:47:34.948Z,5.50
2023-01-09T03:51:47.354Z,6.20
2023-01-09T03:55:59.787Z,5.72
2023-01-09T04:00:13.270Z,5.70
2023-01-09T04:04:25.640Z,6.07
2023-01-09T04:08:37.956Z,5.57
2023-01-09T04:12:50.404Z,4.75
2023-01-09T04:17:02.863Z,5.50
2023-01-09T04:21:15.197Z,5.20
2023-01-09T04:25:27.901Z,5.05
2023-01-09T04:29:40.179Z,6.05
2023-01-09T04:33:52.538Z,5.90
2023-01-09T04:38:04.917Z,5.97
2023-01-09T04:42:17.582Z,5.38
2023-01-09T04:46:29.886Z,5.68
2023-01-09T04:50:42.251Z,5.88
2023-01-09T04:54:54.685Z,5.88
2023-01-09T04:59:07.620Z,6.22
2023-01-09T05:03:20.058Z,5.65
2023-01-09T05:07:34.684Z,4.93
2023-01-09T05:11:47.005Z,4.82
2023-01-09T05:15:59.396Z,4.50
2023-01-09T05:20:12.626Z,4.78
2023-01-09T05:24:25.049Z,4.47
2023-01-09T05:28:37.426Z,3.90
2023-01-09T05:32:49.802Z,4.00
2023-01-09T05:37:02.917Z,3.85
2023-01-09T05:41:16.948Z,4.18
2023-01-09T05:45:29.343Z,3.92
2023-01-09T05:49:42.029Z,3.75
2023-01-09T05:53:54.511Z,3.50
2023-01-09T05:58:06.838Z,3.80
2023-01-09T06:02:21.471Z,3.55
2023-01-09T06:06:33.897Z,4.20
2023-01-09T06:10:47.337Z,4.03
2023-01-09T06:14:59.827Z,3.95
2023-01-09T06:19:12.175Z,4.80
2023-01-09T06:23:24.523Z,4.55
2023-01-09T06:27:36.845Z,6.03
2023-01-09T06:31:49.223Z,5.28
2023-01-09T06:36:01.770Z,4.05
2023-01-09T06:40:15.216Z,4.85
2023-01-09T06:44:27.608Z,5.25
2023-01-09T06:48:39.959Z,5.10
2023-01-09T06:52:52.383Z,4.75
2023-01-09T06:57:04.899Z,5.20
2023-01-09T07:01:17.498Z,5.00
2023-01-09T07:05:30.741Z,5.45
2023-01-09T07:09:43.168Z,5.38
2023-01-09T07:13:55.655Z,5.72
2023-01-09T07:18:08.082Z,4.97
2023-01-09T07:22:20.454Z,6.28
2023-01-09T07:26:32.926Z,5.40
2023-01-09T07:30:45.230Z,5.38
2023-01-09T07:34:57.763Z,4.93
2023-01-09T07:39:10.154Z,4.28
2023-01-09T07:43:27.292Z,5.00
2023-01-09T07:47:41.981Z,4.68
2023-01-09T07:51:57.495Z,3.90
2023-01-09T07:56:10.608Z,3.78
2023-01-09T08:00:23.135Z,3.90
2023-01-09T08:04:35.675Z,3.92
2023-01-09T08:08:48.116Z,4.03
2023-01-09T08:13:00.719Z,4.30
2023-01-09T08:17:13.575Z,4.85
2023-01-09T08:21:25.840Z,4.47
2023-01-09T08:25:38.175Z,3.67
2023-01-09T08:29:50.761Z,3.17
2023-01-09T08:34:03.546Z,3.13
2023-01-09T08:38:16.046Z,3.03
2023-01-09T08:42:46.966Z,2.60
2023-01-09T08:47:06.532Z,3.00
2023-01-09T08:51:20.716Z,2.40
2023-01-09T08:55:33.037Z,2.28
2023-01-09T08:59:45.526Z,2.28
2023-01-09T09:03:57.963Z,2.00
2023-01-09T09:08:12.926Z,2.22
2023-01-09T09:12:26.253Z,2.65
2023-01-09T09:16:38.651Z,2.10
2023-01-09T09:20:51.455Z,2.60
2023-01-09T09:25:05.234Z,2.45
2023-01-09T09:29:17.644Z,2.58
2023-01-09T09:33:30.616Z,2.70
2023-01-09T09:37:44.551Z,3.05
2023-01-09T09:42:53.028Z,3.65
2023-01-09T09:47:27.350Z,3.70
2023-01-09T09:51:50.783Z,3.47
2023-01-09T09:56:05.066Z,3.83
2023-01-09T10:00:22.558Z,3.67
2023-01-09T10:04:40.733Z,3.08
2023-01-09T10:09:15.039Z,3.20
2023-01-09T10:13:46.744Z,3.55
2023-01-09T10:18:11.267Z,2.90
2023-01-09T10:23:15.242Z,4.03
2023-01-09T10:27:39.791Z,4.47
2023-01-09T10:32:10.207Z,5.45
2023-01-09T10:40:52.143Z,5.43
2023-01-09T10:45:19.863Z,4.10
2023-01-09T10:49:36.454Z,4.90
2023-01-09T10:53:54.423Z,5.43
2023-01-09T10:58:14.683Z,8.52
2023-01-09T11:02:33.898Z,8.07
2023-01-09T11:06:51.477Z,7.50
2023-01-09T11:11:04.921Z,8.05
2023-01-09T11:15:20.885Z,3.72
2023-01-09T11:19:33.903Z,4.47
2023-01-09T11:23:46.158Z,4.82
2023-01-09T11:28:07.978Z,4.30
2023-01-09T11:32:25.525Z,5.45
2023-01-09T11:36:38.222Z,5.15
2023-01-09T11:40:57.802Z,4.88
2023-01-09T11:45:22.203Z,5.03
2023-01-09T11:49:34.584Z,5.10
2023-01-09T11:53:57.795Z,5.03
2023-01-09T11:58:20.197Z,5.95
2023-01-09T12:02:35.794Z,5.55
2023-01-09T12:07:45.110Z,5.38
2023-01-09T12:12:12.132Z,5.85
2023-01-09T12:16:33.881Z,5.13
2023-01-09T12:21:04.090Z,5.53
2023-01-09T12:25:38.673Z,5.47
2023-01-09T12:30:02.846Z,4.85
2023-01-09T12:34:26.125Z,4.63
2023-01-09T12:39:08.594Z,4.60
2023-01-09T12:43:58.628Z,5.03
2023-01-09T12:48:28.775Z,5.47
2023-01-09T12:52:58.647Z,5.13
2023-01-09T12:57:33.237Z,6.00
2023-01-09T13:01:51.346Z,6.03
2023-01-09T13:06:13.238Z,6.95
2023-01-09T13:10:43.967Z,6.10
2023-01-09T13:15:07.888Z,7.00
2023-01-09T13:19:37.738Z,6.60
2023-01-09T13:24:03.546Z,6.43
2023-01-09T13:28:31.648Z,6.60
2023-01-09T13:32:52.036Z,6.63
2023-01-09T13:37:04.544Z,5.72
2023-01-09T13:41:37.690Z,5.07
2023-01-09T13:45:52.621Z,4.80
2023-01-09T13:50:09.372Z,4.80
2023-01-09T13:54:58.992Z,5.10
2023-01-09T13:59:28.481Z,4.40
2023-01-09T14:03:40.847Z,5.13
2023-01-09T14:08:07.243Z,5.10
2023-01-09T14:12:22.713Z,4.40
2023-01-09T14:16:38.291Z,5.10
2023-01-09T14:21:12.565Z,5.30
2023-01-09T14:25:29.574Z,5.28
2023-01-09T14:29:44.084Z,4.50
2023-01-09T14:34:32.243Z,4.70
2023-01-09T14:38:49.696Z,4.30
2023-01-09T14:43:13.367Z,3.75
2023-01-09T14:47:31.793Z,4.82
2023-01-09T14:51:47.341Z,4.95
2023-01-09T14:56:02.837Z,4.70
2023-01-09T15:00:18.342Z,5.05
2023-01-09T15:04:40.978Z,5.53
2023-01-09T15:09:02.414Z,6.38
2023-01-09T15:13:29.750Z,7.13
2023-01-09T15:17:45.743Z,7.82
2023-01-09T15:22:05.742Z,8.85
2023-01-09T15:30:39.584Z,9.43
2023-01-09T15:34:55.348Z,11.25
2023-01-09T15:39:07.890Z,17.92
2023-01-09T15:43:20.652Z,26.70
2023-01-09T15:47:33.109Z,22.00
2023-01-09T15:51:47.343Z,24.95
2023-01-09T15:56:09.092Z,27.13
2023-01-09T16:00:35.552Z,26.55
2023-01-09T16:04:49.198Z,24.75
2023-01-09T16:09:02.976Z,20.75
2023-01-09T16:13:16.180Z,22.15
2023-01-09T16:17:31.372Z,19.10
2023-01-09T16:21:46.967Z,15.93
2023-01-09T16:26:20.171Z,16.13
2023-01-09T16:30:33.472Z,17.48
2023-01-09T16:34:53.300Z,20.50
2023-01-09T16:39:05.759Z,17.52
2023-01-09T16:43:18.006Z,17.48
2023-01-09T16:47:30.405Z,16.35
2023-01-09T16:51:42.710Z,16.48
2023-01-09T16:55:55.405Z,18.08
2023-01-09T17:00:14.492Z,20.40
2023-01-09T17:04:26.944Z,16.97
2023-01-09T17:08:40.773Z,17.90
2023-01-09T17:12:53.266Z,16.70
2023-01-09T17:17:11.628Z,16.70
2023-01-09T17:21:27.235Z,21.38
2023-01-09T17:25:58.852Z,14.07
2023-01-09T17:30:18.662Z,13.73
2023-01-09T17:34:32.185Z,16.45
2023-01-09T17:38:44.536Z,13.70
2023-01-09T17:42:56.955Z,13.70
2023-01-09T17:47:18.540Z,12.25
2023-01-09T17:51:32.029Z,8.57
2023-01-09T17:55:44.586Z,5.68
2023-01-09T17:59:57.044Z,5.38
2023-01-09T18:04:09.865Z,4.53
2023-01-09T18:08:22.228Z,4.53
2023-01-09T18:12:36.137Z,3.40
2023-01-09T18:16:48.625Z,2.85
2023-01-09T18:21:05.062Z,3.10
2023-01-09T18:25:17.667Z,1.83
2023-01-09T18:29:30.649Z,3.28
2023-01-09T18:33:47.342Z,2.20
2023-01-09T18:38:00.263Z,3.05
2023-01-09T18:42:12.905Z,2.20
2023-01-09T18:46:26.315Z,2.30
2023-01-09T18:50:39.035Z,2.35
2023-01-09T18:54:52.553Z,2.50
2023-01-09T18:59:07.003Z,2.50
2023-01-09T19:03:20.578Z,2.40
2023-01-09T19:07:34.186Z,2.85
2023-01-09T19:11:46.879Z,2.40
2023-01-09T19:16:00.501Z,3.00
2023-01-09T19:20:13.025Z,2.60
2023-01-09T19:24:25.792Z,2.13
2023-01-09T19:28:39.873Z,2.65
2023-01-09T19:32:52.459Z,2.08
2023-01-09T19:37:05.252Z,2.00
2023-01-09T19:41:20.293Z,1.90
2023-01-09T19:45:32.790Z,1.77
2023-01-09T19:49:46.784Z,1.35
2023-01-09T19:58:16.008Z,1.40
2023-01-09T20:02:28.429Z,1.80
2023-01-09T20:06:45.915Z,1.90
2023-01-09T20:11:03.698Z,1.23
2023-01-09T20:15:18.628Z,1.98
2023-01-09T20:19:33.447Z,1.80
2023-01-09T20:23:46.085Z,2.10
2023-01-09T20:27:58.954Z,1.80
2023-01-09T20:32:12.315Z,2.10
2023-01-09T20:36:29.405Z,1.80
2023-01-09T20:40:45.082Z,1.48
2023-01-09T20:44:57.539Z,1.42
2023-01-09T20:49:13.630Z,1.85
2023-01-09T20:53:26.131Z,1.50
2023-01-09T20:57:40.221Z,1.48
2023-01-09T21:01:54.084Z,1.13
2023-01-09T21:06:08.303Z,1.13
2023-01-09T21:10:24.028Z,0.90
2023-01-09T21:14:39.120Z,0.90
2023-01-09T21:18:54.488Z,1.60
2023-01-09T21:23:09.107Z,1.50
2023-01-09T21:27:21.611Z,0.90
2023-01-09T21:31:35.130Z,1.40
2023-01-09T21:35:58.896Z,1.30
2023-01-09T21:40:18.199Z,1.40
2023-01-09T21:44:49.213Z,1.42
2023-01-09T21:49:07.279Z,1.10
2023-01-09T21:53:20.213Z,1.20
2023-01-09T21:57:32.613Z,1.42
2023-01-09T22:01:52.353Z,1.77
2023-01-09T22:06:05.839Z,1.45
2023-01-09T22:10:18.381Z,1.52
2023-01-09T22:14:30.787Z,1.70
2023-01-09T22:18:44.253Z,1.20
2023-01-09T22:22:56.611Z,1.00
2023-01-09T22:27:09.074Z,0.80
2023-01-09T22:31:25.304Z,1.02
2023-01-09T22:35:39.846Z,1.70
2023-01-09T22:39:52.977Z,1.23
2023-01-09T22:44:08.366Z,1.30
2023-01-09T22:48:20.689Z,1.05
2023-01-09T22:52:34.522Z,0.70
2023-01-09T22:56:46.809Z,0.95
2023-01-09T23:00:59.401Z,1.00
2023-01-09T23:05:12.108Z,1.13
2023-01-09T23:09:25.521Z,1.10
2023-01-09T23:13:38.978Z,1.70
2023-01-09T23:17:51.279Z,1.92
2023-01-09T23:22:05.352Z,1.23
2023-01-09T23:26:17.675Z,1.58
2023-01-09T23:30:30.067Z,1.15
2023-01-09T23:34:42.588Z,1.10
2023-01-09T23:38:55.059Z,1.00
2023-01-09T23:43:10.638Z,1.38
2023-01-09T23:47:23.046Z,1.17
2023-01-09T23:51:35.526Z,1.00
2023-01-09T23:55:48.680Z,0.88
